Hauptseite
METAR-TAF:

METAR-TAF

Flughäfen :

Flughafen Pohnpei

Pohnpei, Mikronesien

Breite: 06-59N, Länge: 158-12E, Höhe: 2 m

Beobachtung

Neuester Wetterbericht von vor 17 Minuten, um 21:55 UTC
Wind 3 kt aus Süd/Südwest
Temperatur 29°C
Luftfeuchtigkeit 84%
Luftdruck 1011 hPa
Sichtweite: 24.1 km
Aufgelockert bewölkt in der Höhe von 1800 ft
Durchbrochene Bewölkung in der Höhe von 13000 ft
Durchbrochene Bewölkung in der Höhe von 30000 ft

METAR: PTPN 152155Z 21003KT 15SM SCT018 BKN130 BKN300 29/26 A2986

Zeit: 09:12 (22:12 UTC)

Prognose

Neuester Wetterbericht von vor 1 Stunde und 15 Minuten, um 20:57 UTC
Gültige Prognose vom 15 um 21 UTC bis 16 um 18 UTC
Wind 8 kt aus Ost
Sichtweite: 10 km
Aufgelockert bewölkt in der Höhe von 1800 ft
Aufgelockert bewölkt in der Höhe von 5000 ft
Durchbrochene Bewölkung in der Höhe von 15000 ft
Schauer in der Nähe,

TAF: PTPN 152057Z 1521/1618 09008KT P6SM VCSH SCT018 SCT050 BKN150

Wetterbeobachtungen und Prognosen von mehr als 4000 Flughäfen (METAR und TAF Bericht).

Die verfügbaren Stationen werden durch gelbe und rote Markierungen auf der Karte dargestellt.

Führen Sie die Maus auf sie, um den Namen der Station zu sehen.

Darauf klicken, um die Beobachtung von Wetterbeobachtungen und Prognosen zu sehen.

Um die Karte zu ändern : klicken Sie auf den grünen Tasten mit einem schwarzen Kreuz Zum Vergrößern, auf den grünen Button mit einem Gedankenstrich zu verkleinern, oder auf die grünen Pfeile für benachbarte Karten.


METAR-TAF: